Time;durP1;ratioP1;P1;durP2;ratioP2;P2;SDS_P1;SDS_P2;PMS_P1;PMS_P2;Temp;Humidity;BMP_temperature;BMP_pressure;BME280_temperature;BME280_humidity;BME280_pressure;Samples;Min_cycle;Max_cycle;Signal;HPM_P1;HPM_P2
2021/09/23 00:00:50;;;;;;;9.98;7.90;;;13.30;81.60;;;;;;2057568;28;20526;-93
2021/09/23 00:01:51;;;;;;;11.25;7.72;;;13.40;81.60;;;;;;2057888;28;20126;-91
2021/09/23 00:04:15;;;;;;;10.82;7.63;;;13.40;81.50;;;;;;2059813;28;20607;-92
2021/09/23 00:05:18;;;;;;;10.63;7.40;;;13.40;81.50;;;;;;2058874;28;20094;-92
2021/09/23 00:06:19;;;;;;;10.75;7.43;;;13.40;81.50;;;;;;2054833;28;20130;-93
2021/09/23 00:07:20;;;;;;;10.65;7.68;;;13.40;81.40;;;;;;2041520;29;20079;-91
2021/09/23 00:08:20;;;;;;;10.95;7.85;;;13.40;81.50;;;;;;2041938;28;20043;-93
2021/09/23 00:09:21;;;;;;;10.45;8.02;;;13.40;81.40;;;;;;2057346;28;20046;-93
2021/09/23 00:10:30;;;;;;;11.43;7.95;;;13.40;81.40;;;;;;2049416;29;20047;-93
2021/09/23 00:11:30;;;;;;;9.85;7.30;;;13.40;81.40;;;;;;2050291;28;20445;-92
2021/09/23 00:12:31;;;;;;;9.95;7.00;;;13.40;81.40;;;;;;2063840;28;20038;-93
2021/09/23 00:13:32;;;;;;;11.45;7.82;;;13.30;81.40;;;;;;2049443;28;20114;-92
2021/09/23 00:14:33;;;;;;;11.93;8.13;;;13.30;81.50;;;;;;2033612;29;20487;-93
2021/09/23 00:15:35;;;;;;;11.20;8.00;;;13.30;81.60;;;;;;2049860;28;20035;-93
2021/09/23 00:16:35;;;;;;;11.30;7.90;;;13.30;81.60;;;;;;2065402;28;20097;-93
2021/09/23 00:17:37;;;;;;;11.55;7.97;;;13.30;81.70;;;;;;2047975;28;20577;-93
2021/09/23 00:18:38;;;;;;;10.05;7.35;;;13.20;81.70;;;;;;2049277;28;20027;-93
2021/09/23 00:19:39;;;;;;;11.13;7.50;;;13.30;81.70;;;;;;2049258;28;20502;-93
2021/09/23 00:20:43;;;;;;;11.93;7.50;;;13.30;81.80;;;;;;2037287;29;20131;-93
2021/09/23 00:21:44;;;;;;;11.25;7.85;;;13.30;81.80;;;;;;2056077;28;20081;-93
2021/09/23 00:22:45;;;;;;;11.23;7.65;;;13.30;81.70;;;;;;2047191;28;20039;-93
2021/09/23 00:23:47;;;;;;;10.50;7.60;;;13.30;81.70;;;;;;2041290;29;20043;-93
2021/09/23 00:24:48;;;;;;;10.95;7.88;;;13.30;81.70;;;;;;2041806;29;20036;-93
2021/09/23 00:25:49;;;;;;;11.45;7.68;;;13.30;81.60;;;;;;2041599;28;20066;-92
2021/09/23 00:26:50;;;;;;;9.75;7.28;;;13.30;81.60;;;;;;2039985;29;20039;-92
2021/09/23 00:27:50;;;;;;;11.15;8.15;;;13.30;81.60;;;;;;2041572;29;20476;-93
2021/09/23 00:28:51;;;;;;;11.55;8.23;;;13.30;81.60;;;;;;2052191;28;20436;-92
2021/09/23 00:29:51;;;;;;;10.80;7.70;;;13.30;81.50;;;;;;2049598;28;20446;-92
2021/09/23 00:30:52;;;;;;;10.65;7.50;;;13.30;81.50;;;;;;2049607;28;20039;-93
2021/09/23 00:31:53;;;;;;;12.27;8.27;;;13.30;81.60;;;;;;2057485;28;20050;-92
2021/09/23 00:32:54;;;;;;;10.27;7.68;;;13.30;81.60;;;;;;2048484;28;20050;-92
2021/09/23 00:33:55;;;;;;;9.77;7.53;;;13.20;81.60;;;;;;2049370;28;20035;-93
2021/09/23 00:34:56;;;;;;;10.98;7.70;;;13.30;81.70;;;;;;2041597;29;20036;-92
2021/09/23 00:35:56;;;;;;;10.13;7.65;;;13.30;81.70;;;;;;2033603;29;20127;-92
2021/09/23 00:36:57;;;;;;;11.13;8.32;;;13.20;81.60;;;;;;2041523;29;20056;-92
2021/09/23 00:37:58;;;;;;;10.57;8.15;;;13.20;82.30;;;;;;2049288;28;20044;-93
2021/09/23 00:38:59;;;;;;;12.13;7.93;;;13.20;81.70;;;;;;2041352;29;20553;-92
2021/09/23 00:39:59;;;;;;;10.50;7.90;;;13.20;81.60;;;;;;2051621;28;20035;-93
2021/09/23 00:41:00;;;;;;;11.18;8.02;;;13.20;81.70;;;;;;2056984;28;20031;-93
2021/09/23 00:42:03;;;;;;;10.27;8.02;;;13.20;81.70;;;;;;2045937;29;20114;-93
2021/09/23 00:43:05;;;;;;;11.95;8.10;;;13.30;81.70;;;;;;2049809;28;20040;-93
2021/09/23 00:44:20;;;;;;;12.50;8.23;;;13.20;81.60;;;;;;2051070;28;20063;-93
2021/09/23 00:45:22;;;;;;;10.70;7.72;;;13.30;81.60;;;;;;2050916;28;20031;-92
2021/09/23 00:46:22;;;;;;;11.23;7.93;;;13.30;81.60;;;;;;2040611;29;20488;-92
2021/09/23 00:47:23;;;;;;;11.38;7.93;;;13.30;81.60;;;;;;2044029;29;20036;-93
2021/09/23 00:48:24;;;;;;;11.48;8.32;;;13.20;81.60;;;;;;2045495;28;20122;-93
2021/09/23 00:49:25;;;;;;;10.77;7.97;;;13.30;81.60;;;;;;2056969;28;20181;-93
2021/09/23 00:50:26;;;;;;;11.27;8.15;;;13.20;81.70;;;;;;2049517;28;20043;-92
2021/09/23 00:51:27;;;;;;;11.07;7.72;;;13.20;81.70;;;;;;2046270;28;20040;-93
2021/09/23 00:52:28;;;;;;;10.43;7.72;;;13.20;81.80;;;;;;2041698;29;20035;-93
2021/09/23 00:53:29;;;;;;;10.80;8.27;;;13.20;81.80;;;;;;2050074;28;20494;-93
2021/09/23 00:54:29;;;;;;;11.75;7.70;;;13.10;81.80;;;;;;2055596;28;20043;-93
2021/09/23 00:55:30;;;;;;;11.45;8.15;;;13.20;81.90;;;;;;2059514;28;20035;-93
2021/09/23 00:56:31;;;;;;;11.27;8.18;;;13.10;81.80;;;;;;2075151;28;20042;-89
2021/09/23 00:57:32;;;;;;;10.80;7.47;;;13.20;81.90;;;;;;2064639;28;20034;-93
2021/09/23 00:58:33;;;;;;;11.55;8.50;;;13.10;81.90;;;;;;2057743;28;20101;-93
2021/09/23 00:59:35;;;;;;;11.93;8.05;;;13.20;81.90;;;;;;2048938;28;20141;-93
2021/09/23 01:00:35;;;;;;;11.77;8.23;;;13.10;81.90;;;;;;2049590;28;20509;-93
2021/09/23 01:01:36;;;;;;;12.27;8.25;;;13.10;81.80;;;;;;2057510;28;20046;-93
2021/09/23 01:02:37;;;;;;;10.93;8.23;;;13.10;81.90;;;;;;2049436;28;20046;-93
2021/09/23 01:03:37;;;;;;;11.43;8.13;;;13.10;81.90;;;;;;2041551;29;20526;-93
2021/09/23 01:04:42;;;;;;;10.65;7.57;;;13.10;82.00;;;;;;2041032;29;20130;-92
2021/09/23 01:05:43;;;;;;;11.93;7.88;;;13.10;82.10;;;;;;2050759;28;20038;-93
2021/09/23 01:06:48;;;;;;;12.25;8.05;;;13.00;82.00;;;;;;2048782;28;20043;-92
2021/09/23 01:07:49;;;;;;;12.00;8.25;;;13.00;82.70;;;;;;2032617;29;20059;-92
2021/09/23 01:08:58;;;;;;;10.82;8.02;;;13.00;82.10;;;;;;2041019;28;20031;-93
2021/09/23 01:09:59;;;;;;;11.68;8.32;;;13.00;82.20;;;;;;2058482;28;20035;-93
2021/09/23 01:11:00;;;;;;;9.57;7.80;;;13.00;82.80;;;;;;2071087;28;20125;-93
2021/09/23 01:12:01;;;;;;;11.82;7.88;;;12.90;82.80;;;;;;2058507;28;20117;-93
2021/09/23 01:13:02;;;;;;;12.48;8.20;;;13.00;82.30;;;;;;2055771;28;20521;-92
2021/09/23 01:14:03;;;;;;;10.95;8.02;;;12.90;82.30;;;;;;2065520;28;20121;-93
2021/09/23 01:15:04;;;;;;;11.93;8.45;;;12.90;82.90;;;;;;2058602;28;20054;-92
2021/09/23 01:16:05;;;;;;;9.90;7.80;;;12.90;82.40;;;;;;2041008;29;20043;-92
2021/09/23 01:17:06;;;;;;;10.40;7.65;;;12.90;82.40;;;;;;2048479;28;20059;-93
2021/09/23 01:18:07;;;;;;;10.57;7.80;;;12.90;82.40;;;;;;2054669;28;20042;-93
2021/09/23 01:19:08;;;;;;;12.30;8.48;;;12.90;82.40;;;;;;2055489;28;20049;-92
2021/09/23 01:20:10;;;;;;;10.27;7.88;;;12.90;82.40;;;;;;2050048;28;20047;-93
2021/09/23 01:21:11;;;;;;;11.65;8.27;;;12.90;82.40;;;;;;2055480;28;20045;-93
2021/09/23 01:22:14;;;;;;;11.05;8.30;;;12.90;82.50;;;;;;2059162;28;20396;-92
2021/09/23 01:23:14;;;;;;;11.75;8.38;;;12.90;82.50;;;;;;2048564;29;20077;-93
2021/09/23 01:24:15;;;;;;;12.60;8.48;;;12.90;82.40;;;;;;2041498;29;20523;-92
2021/09/23 01:25:18;;;;;;;11.93;8.38;;;12.90;82.40;;;;;;2054511;28;20505;-92
2021/09/23 01:26:26;;;;;;;11.80;8.52;;;12.90;83.00;;;;;;2049483;28;20031;-93
2021/09/23 01:27:27;;;;;;;10.95;8.18;;;12.90;82.40;;;;;;2056887;28;20046;-92
2021/09/23 01:28:27;;;;;;;12.18;7.93;;;12.80;82.30;;;;;;2063086;28;20037;-92
2021/09/23 01:29:29;;;;;;;11.65;8.50;;;12.80;82.40;;;;;;2049024;28;20039;-92
2021/09/23 01:30:30;;;;;;;12.10;8.75;;;12.80;82.40;;;;;;2041533;28;20065;-93
2021/09/23 01:31:30;;;;;;;12.25;8.65;;;12.80;82.50;;;;;;2049220;28;20071;-93
2021/09/23 01:32:31;;;;;;;12.23;8.82;;;12.80;82.50;;;;;;2054703;28;20039;-92
2021/09/23 01:33:32;;;;;;;12.25;9.30;;;12.70;82.50;;;;;;2048274;29;20564;-92
2021/09/23 01:34:34;;;;;;;13.57;9.07;;;12.70;82.60;;;;;;2041159;29;20071;-92
2021/09/23 01:35:34;;;;;;;13.85;9.18;;;12.70;82.70;;;;;;2048523;29;20134;-93
2021/09/23 01:36:35;;;;;;;12.65;9.18;;;12.70;82.80;;;;;;2048612;29;20055;-93
2021/09/23 01:37:36;;;;;;;13.85;9.38;;;12.60;82.70;;;;;;2034201;29;20039;-93
2021/09/23 01:38:37;;;;;;;13.75;9.27;;;12.60;82.80;;;;;;2041160;29;20115;-93
2021/09/23 01:39:38;;;;;;;13.60;9.30;;;12.60;82.90;;;;;;2040925;29;20130;-92
2021/09/23 01:40:38;;;;;;;11.63;8.60;;;12.60;83.00;;;;;;2056383;28;20038;-93
2021/09/23 01:41:39;;;;;;;13.68;8.90;;;12.50;83.70;;;;;;2047996;29;20137;-93
2021/09/23 01:42:43;;;;;;;14.25;8.90;;;12.50;83.10;;;;;;2041271;29;20031;-92
2021/09/23 01:43:44;;;;;;;11.95;8.48;;;12.50;83.20;;;;;;2058732;28;20403;-93
2021/09/23 01:44:44;;;;;;;12.10;8.73;;;12.50;83.20;;;;;;2050667;29;20130;-93
2021/09/23 01:45:46;;;;;;;11.50;8.32;;;12.50;83.30;;;;;;2042946;29;20387;-93
2021/09/23 01:46:47;;;;;;;11.70;8.70;;;12.50;83.30;;;;;;2065247;28;20042;-93
2021/09/23 01:47:48;;;;;;;12.35;8.70;;;12.50;83.30;;;;;;2048945;28;20480;-92
2021/09/23 01:48:49;;;;;;;11.57;8.50;;;12.60;83.30;;;;;;2041036;29;20416;-93
2021/09/23 01:49:49;;;;;;;11.65;8.50;;;12.60;84.00;;;;;;2041272;29;20505;-93
2021/09/23 01:50:50;;;;;;;13.40;9.32;;;12.50;83.30;;;;;;2056946;28;20485;-93
2021/09/23 01:51:51;;;;;;;11.77;8.45;;;12.60;83.30;;;;;;2033451;29;20036;-93
2021/09/23 01:52:51;;;;;;;11.85;8.85;;;12.50;83.20;;;;;;2048760;28;20477;-93
2021/09/23 01:53:52;;;;;;;13.10;8.27;;;12.60;83.30;;;;;;2040494;29;20602;-93
2021/09/23 01:54:53;;;;;;;14.45;8.55;;;12.60;83.30;;;;;;2041501;28;20075;-93
2021/09/23 01:55:53;;;;;;;13.13;8.65;;;12.60;83.20;;;;;;2048815;28;20036;-93
2021/09/23 01:56:54;;;;;;;12.18;8.98;;;12.60;83.20;;;;;;2050558;28;20541;-93
2021/09/23 01:57:55;;;;;;;12.15;8.55;;;12.60;83.20;;;;;;2041880;29;20051;-93
2021/09/23 01:58:55;;;;;;;12.35;8.50;;;12.50;83.10;;;;;;2058460;28;20027;-93
2021/09/23 01:59:56;;;;;;;12.40;8.20;;;12.60;83.10;;;;;;2046920;29;20128;-93
2021/09/23 02:00:57;;;;;;;13.82;9.00;;;12.60;83.10;;;;;;2049028;28;20031;-92
2021/09/23 02:01:57;;;;;;;11.98;8.68;;;12.60;83.10;;;;;;2041366;29;20070;-92
2021/09/23 02:02:58;;;;;;;13.98;9.18;;;12.60;83.10;;;;;;2048143;28;20106;-92
2021/09/23 02:03:59;;;;;;;12.82;8.75;;;12.60;83.10;;;;;;2042319;29;20036;-93
2021/09/23 02:04:59;;;;;;;12.73;8.55;;;12.60;83.10;;;;;;2041708;29;20043;-93
2021/09/23 02:06:00;;;;;;;15.23;8.60;;;12.60;83.10;;;;;;2044307;29;20111;-93
2021/09/23 02:07:02;;;;;;;14.32;8.68;;;12.60;83.10;;;;;;2046454;29;20491;-92
2021/09/23 02:08:03;;;;;;;13.20;8.88;;;12.60;83.10;;;;;;2063023;28;20035;-93
2021/09/23 02:09:04;;;;;;;12.20;8.40;;;12.60;83.00;;;;;;2061741;28;20110;-92
2021/09/23 02:10:05;;;;;;;13.57;8.52;;;12.60;83.00;;;;;;2051880;28;20066;-92
2021/09/23 02:11:06;;;;;;;16.88;9.02;;;12.60;82.90;;;;;;2057784;28;20170;-93
2021/09/23 02:12:06;;;;;;;14.52;8.93;;;12.60;83.00;;;;;;2056829;28;20070;-92
2021/09/23 02:13:07;;;;;;;14.10;9.35;;;12.60;82.90;;;;;;2065434;28;20123;-93
2021/09/23 02:14:08;;;;;;;16.00;8.70;;;12.60;83.00;;;;;;2048340;28;20421;-93
2021/09/23 02:15:09;;;;;;;13.77;8.40;;;12.60;82.90;;;;;;2049112;28;20198;-93
2021/09/23 02:16:10;;;;;;;14.32;9.30;;;12.60;83.00;;;;;;2056118;28;20551;-93
2021/09/23 02:17:11;;;;;;;14.90;9.18;;;12.60;83.00;;;;;;2049939;28;20051;-92
2021/09/23 02:18:11;;;;;;;12.43;8.35;;;12.60;83.00;;;;;;2058526;28;20035;-94
2021/09/23 02:19:12;;;;;;;13.68;8.85;;;12.60;83.00;;;;;;2058545;28;20046;-92
2021/09/23 02:20:13;;;;;;;13.38;9.02;;;12.60;83.00;;;;;;2064192;28;20560;-92
2021/09/23 02:21:14;;;;;;;15.35;9.32;;;12.60;83.00;;;;;;2069746;28;20037;-92
2021/09/23 02:22:15;;;;;;;15.43;9.32;;;12.60;83.00;;;;;;2075097;28;20117;-93
2021/09/23 02:23:17;;;;;;;14.13;9.30;;;12.60;83.00;;;;;;2069884;28;20093;-92
2021/09/23 02:24:17;;;;;;;15.90;9.52;;;12.60;83.00;;;;;;2062769;28;20085;-93
2021/09/23 02:25:18;;;;;;;15.85;9.52;;;12.60;83.00;;;;;;2063070;28;20071;-92
2021/09/23 02:26:19;;;;;;;16.45;9.07;;;12.50;83.00;;;;;;2063940;28;20062;-92
2021/09/23 02:27:21;;;;;;;16.67;9.40;;;12.60;83.00;;;;;;2063257;28;20107;-92
2021/09/23 02:28:21;;;;;;;14.73;9.23;;;12.50;83.00;;;;;;2049288;28;20035;-93
2021/09/23 02:29:22;;;;;;;13.15;8.73;;;12.50;83.00;;;;;;2049335;28;20082;-93
2021/09/23 02:30:24;;;;;;;15.25;8.90;;;12.50;83.00;;;;;;2061615;28;20468;-93
2021/09/23 02:31:25;;;;;;;13.93;9.38;;;12.50;83.00;;;;;;2071228;28;20043;-93
2021/09/23 02:32:26;;;;;;;14.85;9.13;;;12.50;83.00;;;;;;2064557;28;20141;-92
2021/09/23 02:33:26;;;;;;;13.85;9.18;;;12.50;83.00;;;;;;2055080;28;20038;-93
2021/09/23 02:34:27;;;;;;;14.15;9.00;;;12.50;83.00;;;;;;2056754;28;20043;-93
2021/09/23 02:35:28;;;;;;;14.75;9.00;;;12.50;83.00;;;;;;2062995;28;20038;-93
2021/09/23 02:36:29;;;;;;;17.23;9.43;;;12.50;83.00;;;;;;2065070;28;20090;-92
2021/09/23 02:37:29;;;;;;;14.68;9.45;;;12.50;83.10;;;;;;2073270;28;20052;-93
2021/09/23 02:38:30;;;;;;;15.38;9.02;;;12.50;83.10;;;;;;2065094;28;20042;-93
2021/09/23 02:39:31;;;;;;;14.98;8.63;;;12.50;83.10;;;;;;2072494;28;20042;-92
2021/09/23 02:40:32;;;;;;;15.82;9.60;;;12.40;83.10;;;;;;2064090;28;20062;-92
2021/09/23 02:41:32;;;;;;;14.20;9.48;;;12.40;83.10;;;;;;2056032;28;20444;-92
2021/09/23 02:42:33;;;;;;;16.48;9.35;;;12.40;83.20;;;;;;2057518;28;20039;-92
2021/09/23 02:43:34;;;;;;;14.85;9.30;;;12.40;83.20;;;;;;2064386;28;20030;-93
2021/09/23 02:44:35;;;;;;;15.10;9.13;;;12.40;83.20;;;;;;2056026;28;20446;-92
2021/09/23 02:45:36;;;;;;;14.77;9.63;;;12.40;83.20;;;;;;2048901;28;20054;-92
2021/09/23 02:46:36;;;;;;;16.67;9.18;;;12.40;83.20;;;;;;2048887;28;20454;-92
2021/09/23 02:47:37;;;;;;;14.82;9.07;;;12.40;83.20;;;;;;2048368;28;20051;-92
2021/09/23 02:48:38;;;;;;;14.40;9.25;;;12.40;83.20;;;;;;2056358;28;20097;-92
2021/09/23 02:49:38;;;;;;;15.48;9.40;;;12.40;83.20;;;;;;2052892;28;20425;-92
2021/09/23 02:50:39;;;;;;;14.00;8.98;;;12.40;83.20;;;;;;2064538;28;20039;-93
2021/09/23 02:51:40;;;;;;;15.55;9.23;;;12.40;83.20;;;;;;2057004;28;20149;-92
2021/09/23 02:52:41;;;;;;;15.10;9.48;;;12.40;83.20;;;;;;2056616;28;20058;-93
2021/09/23 02:53:43;;;;;;;18.45;9.88;;;12.40;83.20;;;;;;2064322;28;20073;-92
2021/09/23 02:54:44;;;;;;;13.45;8.93;;;12.40;83.20;;;;;;2057114;28;20130;-92
2021/09/23 02:55:45;;;;;;;15.07;9.20;;;12.30;83.20;;;;;;2048914;28;20091;-92
2021/09/23 02:56:46;;;;;;;16.38;9.60;;;12.40;83.30;;;;;;2052654;28;20042;-92
2021/09/23 02:57:46;;;;;;;15.60;9.27;;;12.30;83.30;;;;;;2050111;28;20545;-92
2021/09/23 02:58:47;;;;;;;16.42;9.27;;;12.30;83.30;;;;;;2050262;28;20231;-92
2021/09/23 02:59:48;;;;;;;15.48;9.63;;;12.30;83.30;;;;;;2075963;28;20492;-92
2021/09/23 03:00:48;;;;;;;15.77;9.75;;;12.30;83.30;;;;;;2059209;28;20081;-92
2021/09/23 03:01:49;;;;;;;15.35;8.95;;;12.30;83.90;;;;;;2049895;28;20090;-92
2021/09/23 03:02:50;;;;;;;16.27;10.25;;;12.30;83.30;;;;;;2066148;28;20042;-92
2021/09/23 03:03:50;;;;;;;17.17;9.57;;;12.30;83.40;;;;;;2058543;28;20509;-92
2021/09/23 03:04:51;;;;;;;16.52;10.18;;;12.30;83.40;;;;;;2066550;28;20516;-92
2021/09/23 03:05:51;;;;;;;15.27;10.10;;;12.30;83.40;;;;;;2065594;28;20077;-92
2021/09/23 03:06:52;;;;;;;19.02;10.30;;;12.30;83.40;;;;;;2065646;28;20085;-93
2021/09/23 03:07:53;;;;;;;15.38;10.15;;;12.30;83.40;;;;;;2066341;28;20050;-92
2021/09/23 03:08:53;;;;;;;16.85;10.30;;;12.30;83.40;;;;;;2055947;28;20039;-92
2021/09/23 03:09:54;;;;;;;16.88;10.30;;;12.30;83.40;;;;;;2066349;28;20042;-93
2021/09/23 03:10:55;;;;;;;18.38;10.15;;;12.20;83.30;;;;;;2074075;28;20568;-92
2021/09/23 03:11:56;;;;;;;15.82;10.15;;;12.20;83.30;;;;;;2050028;29;20129;-92
2021/09/23 03:12:57;;;;;;;15.63;10.05;;;12.30;83.40;;;;;;2050421;28;20126;-93
2021/09/23 03:13:58;;;;;;;16.33;10.68;;;12.20;83.40;;;;;;2051474;28;20031;-93
2021/09/23 03:14:58;;;;;;;16.13;10.18;;;12.20;83.30;;;;;;2049589;29;20064;-92
2021/09/23 03:15:59;;;;;;;14.80;10.00;;;12.20;83.40;;;;;;2057790;28;20047;-93
2021/09/23 03:16:59;;;;;;;16.63;9.95;;;12.20;83.40;;;;;;2049521;28;20051;-92
2021/09/23 03:18:01;;;;;;;19.13;11.10;;;12.20;83.40;;;;;;2057831;28;20497;-92
2021/09/23 03:19:02;;;;;;;16.67;10.23;;;12.20;83.40;;;;;;2065918;28;20045;-93
2021/09/23 03:20:03;;;;;;;18.20;10.80;;;12.20;83.40;;;;;;2055519;28;20043;-92
2021/09/23 03:21:03;;;;;;;15.07;9.90;;;12.20;83.50;;;;;;2057649;28;20070;-92
2021/09/23 03:22:04;;;;;;;17.83;10.77;;;12.20;83.40;;;;;;2042300;29;20096;-92
2021/09/23 03:23:05;;;;;;;15.57;9.77;;;12.20;83.40;;;;;;2042566;29;20134;-92
2021/09/23 03:24:06;;;;;;;16.35;9.80;;;12.20;83.40;;;;;;2050132;28;20035;-92
2021/09/23 03:25:07;;;;;;;16.33;10.25;;;12.20;83.40;;;;;;2050247;28;20043;-92
2021/09/23 03:26:09;;;;;;;15.82;10.70;;;12.20;83.40;;;;;;2050183;28;20077;-93
2021/09/23 03:27:10;;;;;;;17.15;10.38;;;12.20;84.00;;;;;;2066029;28;20038;-92
2021/09/23 03:28:11;;;;;;;16.10;9.82;;;12.20;83.40;;;;;;2062948;28;20102;-92
2021/09/23 03:29:12;;;;;;;18.33;10.75;;;12.20;83.40;;;;;;2058264;28;20066;-93
2021/09/23 03:30:13;;;;;;;16.20;10.23;;;12.20;83.40;;;;;;2050197;28;20043;-92
2021/09/23 03:31:13;;;;;;;15.98;10.75;;;12.30;83.50;;;;;;2057943;28;20031;-92
2021/09/23 03:32:14;;;;;;;16.80;10.48;;;12.30;83.50;;;;;;2065761;28;20069;-92
2021/09/23 03:33:15;;;;;;;14.68;9.55;;;12.20;83.40;;;;;;2057585;28;20077;-92
2021/09/23 03:34:15;;;;;;;16.30;9.93;;;12.20;83.40;;;;;;2066220;28;20042;-93
2021/09/23 03:35:17;;;;;;;15.27;9.98;;;12.30;83.50;;;;;;2058074;28;20042;-93
2021/09/23 03:36:18;;;;;;;15.23;10.43;;;12.20;83.50;;;;;;2053887;28;20031;-92
2021/09/23 03:37:19;;;;;;;15.00;9.50;;;12.20;83.50;;;;;;2062369;28;20050;-92
2021/09/23 03:38:19;;;;;;;14.55;9.73;;;12.20;83.50;;;;;;2062699;28;20035;-93
2021/09/23 03:39:20;;;;;;;15.23;10.10;;;12.20;83.40;;;;;;2063665;28;20106;-92
2021/09/23 03:40:21;;;;;;;16.83;10.00;;;12.20;83.40;;;;;;2065902;28;20057;-92
2021/09/23 03:41:23;;;;;;;16.83;10.45;;;12.20;83.50;;;;;;2065826;28;20042;-92
2021/09/23 03:42:24;;;;;;;17.73;10.63;;;12.20;83.50;;;;;;2058521;28;20481;-92
2021/09/23 03:43:25;;;;;;;16.58;10.40;;;12.20;83.50;;;;;;2065742;28;20043;-92
2021/09/23 03:44:26;;;;;;;15.27;9.95;;;12.20;83.40;;;;;;2058463;28;20037;-92
2021/09/23 03:45:27;;;;;;;16.98;10.35;;;12.20;83.50;;;;;;2057990;28;20078;-92
2021/09/23 03:46:27;;;;;;;15.73;10.23;;;12.20;83.40;;;;;;2070447;28;20030;-93
2021/09/23 03:47:28;;;;;;;15.40;9.75;;;12.20;83.50;;;;;;2065387;28;20061;-92
2021/09/23 03:48:29;;;;;;;15.50;9.48;;;12.20;83.50;;;;;;2058412;28;20526;-93
2021/09/23 03:49:30;;;;;;;15.52;10.02;;;12.20;83.50;;;;;;2069070;28;20034;-92
2021/09/23 03:50:31;;;;;;;15.43;11.18;;;12.20;83.50;;;;;;2061132;28;20039;-92
2021/09/23 03:51:31;;;;;;;14.40;10.18;;;12.20;83.50;;;;;;2057471;28;20129;-93
2021/09/23 03:52:32;;;;;;;14.57;9.65;;;12.20;83.50;;;;;;2063184;28;20110;-93
2021/09/23 03:53:38;;;;;;;15.35;10.40;;;12.10;83.50;;;;;;2062346;28;20485;-92
2021/09/23 03:54:39;;;;;;;15.57;10.35;;;12.20;83.60;;;;;;2055473;28;20477;-92
2021/09/23 03:55:39;;;;;;;15.15;9.57;;;12.20;84.20;;;;;;2061767;28;20042;-92
2021/09/23 03:56:40;;;;;;;14.93;9.90;;;12.10;83.60;;;;;;2049776;28;20127;-92
2021/09/23 03:57:41;;;;;;;16.15;10.20;;;12.20;83.60;;;;;;2041648;29;20071;-93
2021/09/23 03:58:43;;;;;;;15.30;9.80;;;12.10;83.60;;;;;;2047656;28;20092;-92
2021/09/23 03:59:43;;;;;;;15.25;10.30;;;12.10;83.60;;;;;;2049899;28;20035;-92
2021/09/23 04:00:44;;;;;;;15.15;9.70;;;12.10;83.70;;;;;;2041486;29;20036;-93
2021/09/23 04:01:46;;;;;;;14.65;10.07;;;12.10;83.70;;;;;;2057399;28;20043;-92
2021/09/23 04:02:47;;;;;;;14.70;10.15;;;12.10;83.70;;;;;;2068707;28;20034;-92
2021/09/23 04:03:48;;;;;;;15.57;10.52;;;12.10;83.70;;;;;;2047031;29;20046;-93
2021/09/23 04:04:49;;;;;;;15.55;9.68;;;12.10;83.70;;;;;;2042105;29;20035;-93
2021/09/23 04:05:51;;;;;;;16.17;10.40;;;12.10;83.80;;;;;;2052339;28;20529;-93
2021/09/23 04:06:51;;;;;;;14.88;9.98;;;12.10;83.80;;;;;;2065170;28;20092;-93
2021/09/23 04:07:52;;;;;;;15.60;10.23;;;12.10;83.80;;;;;;2042077;29;20498;-92
2021/09/23 04:08:52;;;;;;;16.40;10.80;;;12.10;83.80;;;;;;2049180;28;20502;-92
2021/09/23 04:09:53;;;;;;;17.98;11.07;;;12.10;83.80;;;;;;2057609;28;20154;-92
2021/09/23 04:10:54;;;;;;;17.73;10.60;;;12.10;83.90;;;;;;2057284;28;20555;-93
2021/09/23 04:11:54;;;;;;;15.40;10.52;;;12.00;83.90;;;;;;2057610;28;20058;-93
2021/09/23 04:12:55;;;;;;;17.00;10.57;;;12.10;83.90;;;;;;2055353;28;20062;-92
2021/09/23 04:13:56;;;;;;;15.50;10.60;;;12.00;83.90;;;;;;2059477;28;20118;-92
2021/09/23 04:14:57;;;;;;;15.93;10.32;;;12.00;83.90;;;;;;2033785;29;20487;-93
2021/09/23 04:15:57;;;;;;;13.43;9.50;;;12.00;84.00;;;;;;2041192;29;20131;-92
2021/09/23 04:16:58;;;;;;;15.10;9.65;;;12.00;83.90;;;;;;2041799;29;20059;-92
2021/09/23 04:17:59;;;;;;;15.95;10.15;;;12.00;84.00;;;;;;2055333;28;20082;-92
2021/09/23 04:19:00;;;;;;;14.98;9.65;;;12.00;84.00;;;;;;2057467;28;20120;-91
2021/09/23 04:20:02;;;;;;;16.33;10.50;;;12.00;84.00;;;;;;2063083;28;20192;-92
2021/09/23 04:21:02;;;;;;;15.43;10.18;;;12.00;84.00;;;;;;2043771;29;20044;-93
2021/09/23 04:22:03;;;;;;;15.20;10.20;;;12.00;84.10;;;;;;2048891;29;20118;-92
2021/09/23 04:23:04;;;;;;;16.83;10.68;;;12.00;84.10;;;;;;2049156;28;20098;-92
2021/09/23 04:24:05;;;;;;;15.70;10.43;;;12.00;84.10;;;;;;2049629;29;20438;-92
2021/09/23 04:25:06;;;;;;;16.65;10.55;;;12.00;84.10;;;;;;2033980;29;20044;-92
2021/09/23 04:26:06;;;;;;;16.58;10.20;;;11.90;84.10;;;;;;2041167;28;20043;-92
2021/09/23 04:27:07;;;;;;;17.27;10.32;;;11.90;84.10;;;;;;2055864;28;20031;-92
2021/09/23 04:28:08;;;;;;;17.25;10.68;;;11.90;84.10;;;;;;2041170;29;20082;-92
2021/09/23 04:29:09;;;;;;;17.30;10.85;;;11.90;84.10;;;;;;2041856;28;20071;-92
2021/09/23 04:30:10;;;;;;;13.95;9.93;;;11.90;84.20;;;;;;2058200;28;20051;-93
2021/09/23 04:31:11;;;;;;;18.58;11.10;;;11.90;84.10;;;;;;2052005;28;20090;-92
2021/09/23 04:32:13;;;;;;;16.55;10.30;;;11.90;84.20;;;;;;2044789;28;20090;-92
2021/09/23 04:33:13;;;;;;;15.75;10.20;;;11.90;84.20;;;;;;2060648;28;20094;-92
2021/09/23 04:34:15;;;;;;;16.80;10.43;;;11.90;84.20;;;;;;2049580;28;20600;-92
2021/09/23 04:35:16;;;;;;;17.95;11.00;;;11.90;84.20;;;;;;2049331;28;20074;-92
2021/09/23 04:36:16;;;;;;;15.70;10.27;;;11.90;84.20;;;;;;2050313;28;20429;-92
2021/09/23 04:37:17;;;;;;;17.05;10.80;;;11.90;84.20;;;;;;2064807;28;20073;-92
2021/09/23 04:38:18;;;;;;;15.50;10.23;;;11.90;84.20;;;;;;2041096;29;20465;-92
2021/09/23 04:39:19;;;;;;;15.18;10.00;;;11.90;84.20;;;;;;2041677;29;20043;-92
2021/09/23 04:40:20;;;;;;;17.00;10.82;;;11.90;84.20;;;;;;2054949;28;20070;-92
2021/09/23 04:41:20;;;;;;;15.70;9.73;;;11.90;84.20;;;;;;2057318;28;20074;-92
2021/09/23 04:42:22;;;;;;;16.88;9.88;;;11.90;84.80;;;;;;2049622;29;20077;-93
2021/09/23 04:43:22;;;;;;;16.25;10.63;;;11.90;84.20;;;;;;2041936;28;20050;-92
2021/09/23 04:44:25;;;;;;;16.23;10.18;;;11.90;84.80;;;;;;2056835;28;20034;-93
2021/09/23 04:45:26;;;;;;;15.27;10.05;;;11.90;84.20;;;;;;2066055;28;20034;-92
2021/09/23 04:46:26;;;;;;;17.17;10.20;;;11.90;84.30;;;;;;2054118;28;20020;-92
2021/09/23 04:47:27;;;;;;;14.82;10.27;;;11.80;84.20;;;;;;2038742;29;20135;-92
2021/09/23 04:48:28;;;;;;;16.27;10.48;;;11.90;84.30;;;;;;2049185;28;20039;-92
2021/09/23 04:49:29;;;;;;;15.57;10.38;;;11.80;84.30;;;;;;2057542;28;20802;-92
2021/09/23 04:50:30;;;;;;;15.68;10.77;;;11.80;84.30;;;;;;2050659;28;20031;-92
2021/09/23 04:51:31;;;;;;;14.40;9.90;;;11.80;84.30;;;;;;2049576;29;20051;-92
2021/09/23 04:52:31;;;;;;;15.10;10.38;;;11.80;84.40;;;;;;2054163;28;20465;-92
2021/09/23 04:53:32;;;;;;;15.07;10.38;;;11.80;84.30;;;;;;2054460;28;20047;-92
2021/09/23 04:54:33;;;;;;;16.73;11.00;;;11.80;84.40;;;;;;2056552;28;20035;-92
2021/09/23 04:55:33;;;;;;;15.20;10.52;;;11.80;84.40;;;;;;2065549;28;20077;-92
2021/09/23 04:56:34;;;;;;;15.85;10.57;;;11.80;84.50;;;;;;2057240;28;20035;-92
2021/09/23 04:57:35;;;;;;;16.60;10.82;;;11.80;84.50;;;;;;2062423;28;20062;-92
2021/09/23 04:58:36;;;;;;;14.95;10.45;;;11.80;84.50;;;;;;2062581;28;20050;-87
2021/09/23 04:59:36;;;;;;;16.48;11.30;;;11.80;84.50;;;;;;2053929;28;20072;-92
2021/09/23 05:00:37;;;;;;;16.52;10.68;;;11.70;84.40;;;;;;2060477;28;20031;-92
2021/09/23 05:01:38;;;;;;;16.15;10.73;;;11.70;84.50;;;;;;2065612;28;20516;-93
2021/09/23 05:02:38;;;;;;;15.48;10.10;;;11.80;84.50;;;;;;2057447;28;20034;-91
2021/09/23 05:03:39;;;;;;;15.38;10.50;;;11.80;84.60;;;;;;2049860;28;20171;-92
2021/09/23 05:04:44;;;;;;;15.63;10.50;;;11.80;84.60;;;;;;2050881;28;20486;-89
2021/09/23 05:05:45;;;;;;;16.77;10.65;;;11.80;84.60;;;;;;2049611;29;20094;-92
2021/09/23 05:06:45;;;;;;;15.68;10.23;;;11.70;84.60;;;;;;2042529;29;20035;-93
2021/09/23 05:07:46;;;;;;;16.65;10.55;;;11.70;84.60;;;;;;2035342;29;20036;-92
2021/09/23 05:08:46;;;;;;;15.02;10.63;;;11.70;84.60;;;;;;2041663;29;20087;-92
2021/09/23 05:09:47;;;;;;;14.40;10.18;;;11.70;84.60;;;;;;2056425;28;20031;-91
2021/09/23 05:10:48;;;;;;;14.40;10.35;;;11.70;84.70;;;;;;2045613;29;20084;-92
2021/09/23 05:11:48;;;;;;;16.23;9.98;;;11.70;84.70;;;;;;2051297;28;20510;-92
2021/09/23 05:12:49;;;;;;;17.27;11.07;;;11.70;84.70;;;;;;2057943;28;20089;-93
2021/09/23 05:13:50;;;;;;;16.83;11.18;;;11.70;85.30;;;;;;2056951;28;20042;-91